Time;durP1;ratioP1;P1;durP2;ratioP2;P2;SDS_P1;SDS_P2;PMS_P1;PMS_P2;Temp;Humidity;BMP_temperature;BMP_pressure;BME280_temperature;BME280_humidity;BME280_pressure;Samples;Min_cycle;Max_cycle;Signal;HPM_P1;HPM_P2
2023/04/05 00:00:57;;;;;;;14.98;9.73;;;;;;;;;;5032416;28;20648;-68
2023/04/05 00:03:27;;;;;;;12.02;8.60;;;;;;;;;;5032351;28;20200;-69
2023/04/05 00:05:56;;;;;;;49.80;19.92;;;;;;;;;;5014738;28;20181;-70
2023/04/05 00:08:25;;;;;;;21.42;11.80;;;;;;;;;;5032505;28;20255;-68
2023/04/05 00:10:52;;;;;;;13.73;9.27;;;;;;;;;;5032556;28;20583;-68
2023/04/05 00:13:21;;;;;;;23.35;12.75;;;;;;;;;;5032388;28;20212;-69
2023/04/05 00:15:47;;;;;;;19.05;10.77;;;;;;;;;;5032395;28;20204;-69
2023/04/05 00:18:22;;;;;;;9.98;8.07;;;;;;;;;;5032345;28;20180;-69
2023/04/05 00:20:52;;;;;;;10.85;7.97;;;;;;;;;;5014468;28;20266;-69
2023/04/05 00:23:21;;;;;;;25.75;13.45;;;;;;;;;;5032320;28;20176;-69
2023/04/05 00:25:47;;;;;;;12.63;9.23;;;;;;;;;;5032059;28;20668;-69
2023/04/05 00:28:13;;;;;;;21.70;11.80;;;;;;;;;;5032380;28;20249;-68
2023/04/05 00:30:39;;;;;;;51.42;20.25;;;;;;;;;;5014458;28;20424;-69
2023/04/05 00:33:05;;;;;;;11.27;7.80;;;;;;;;;;5014224;28;20216;-69
2023/04/05 00:35:33;;;;;;;8.52;7.13;;;;;;;;;;5014512;28;20906;-69
2023/04/05 00:37:59;;;;;;;22.20;11.52;;;;;;;;;;5031771;28;20204;-69
2023/04/05 00:40:28;;;;;;;32.53;13.20;;;;;;;;;;5014371;28;20242;-69
2023/04/05 00:42:54;;;;;;;36.83;16.52;;;;;;;;;;5032036;28;20451;-69
2023/04/05 00:45:20;;;;;;;11.60;8.00;;;;;;;;;;5031880;28;20283;-69
2023/04/05 00:47:46;;;;;;;16.70;9.80;;;;;;;;;;5031771;28;20416;-69
2023/04/05 00:50:12;;;;;;;22.67;11.70;;;;;;;;;;5032292;28;20161;-69
2023/04/05 00:52:40;;;;;;;24.83;12.63;;;;;;;;;;5031769;28;20558;-69
2023/04/05 00:55:07;;;;;;;29.58;13.45;;;;;;;;;;5032138;28;20201;-68
2023/04/05 00:57:40;;;;;;;110.47;39.22;;;;;;;;;;5031849;28;20191;-69
2023/04/05 01:00:08;;;;;;;40.78;18.40;;;;;;;;;;5031935;28;20202;-69
2023/04/05 01:02:54;;;;;;;47.35;20.55;;;;;;;;;;5031793;28;20196;-68
2023/04/05 01:05:42;;;;;;;50.15;20.20;;;;;;;;;;5031724;28;20233;-68
2023/04/05 01:08:08;;;;;;;28.92;13.70;;;;;;;;;;5031624;28;20199;-68
2023/04/05 01:10:39;;;;;;;8.20;6.43;;;;;;;;;;5031805;28;20733;-69
2023/04/05 01:13:05;;;;;;;12.82;8.40;;;;;;;;;;5032021;28;20459;-69
2023/04/05 01:15:31;;;;;;;12.18;8.10;;;;;;;;;;5031565;28;20233;-69
2023/04/05 01:18:00;;;;;;;7.68;7.05;;;;;;;;;;5031549;28;20165;-68
2023/04/05 01:20:28;;;;;;;19.85;10.73;;;;;;;;;;5031763;28;20189;-69
2023/04/05 01:23:10;;;;;;;8.45;7.55;;;;;;;;;;5031779;28;20203;-68
2023/04/05 01:25:39;;;;;;;7.00;6.40;;;;;;;;;;5031661;28;20184;-69
2023/04/05 01:28:16;;;;;;;6.82;6.18;;;;;;;;;;5031558;28;20243;-68
2023/04/05 01:30:46;;;;;;;6.47;6.00;;;;;;;;;;5031505;28;20260;-69
2023/04/05 01:33:27;;;;;;;8.73;6.20;;;;;;;;;;5031396;28;20303;-69
2023/04/05 01:35:55;;;;;;;5.90;5.60;;;;;;;;;;5031124;28;20612;-68
2023/04/05 01:38:26;;;;;;;6.07;5.63;;;;;;;;;;5031746;28;20223;-68
2023/04/05 01:40:55;;;;;;;7.63;6.03;;;;;;;;;;5031579;28;20640;-69
2023/04/05 01:43:21;;;;;;;6.18;5.57;;;;;;;;;;5031482;28;20193;-68
2023/04/05 01:45:47;;;;;;;5.45;5.13;;;;;;;;;;5031203;28;20181;-69
2023/04/05 01:48:13;;;;;;;22.42;12.07;;;;;;;;;;5031499;28;20215;-69
2023/04/05 01:50:40;;;;;;;11.45;8.90;;;;;;;;;;5031302;28;20255;-69
2023/04/05 01:53:09;;;;;;;5.85;5.32;;;;;;;;;;5031402;28;20227;-69
2023/04/05 01:55:35;;;;;;;7.22;6.53;;;;;;;;;;5031128;28;20671;-69
2023/04/05 01:58:01;;;;;;;8.15;7.32;;;;;;;;;;5031102;28;20545;-69
2023/04/05 02:00:27;;;;;;;7.10;6.20;;;;;;;;;;5031165;28;20208;-68
2023/04/05 02:02:53;;;;;;;8.47;6.73;;;;;;;;;;5033208;28;20422;-69
2023/04/05 02:05:19;;;;;;;11.55;8.60;;;;;;;;;;5016981;28;20440;-69
2023/04/05 02:07:45;;;;;;;16.00;10.90;;;;;;;;;;5034996;28;20554;-69
2023/04/05 02:10:14;;;;;;;13.67;10.23;;;;;;;;;;5034656;28;20439;-69
2023/04/05 02:12:40;;;;;;;17.85;11.25;;;;;;;;;;5034392;28;20537;-69
2023/04/05 02:15:06;;;;;;;31.57;17.10;;;;;;;;;;5034418;28;20636;-69
2023/04/05 02:17:38;;;;;;;20.00;12.02;;;;;;;;;;5016728;28;20416;-69
2023/04/05 02:20:11;;;;;;;17.00;10.95;;;;;;;;;;5034766;28;20624;-69
2023/04/05 02:22:39;;;;;;;8.57;7.70;;;;;;;;;;5034308;28;20203;-68
2023/04/05 02:25:07;;;;;;;13.35;9.40;;;;;;;;;;5034447;28;20199;-69
2023/04/05 02:27:33;;;;;;;8.48;6.97;;;;;;;;;;5034362;28;20184;-69
2023/04/05 02:29:59;;;;;;;7.03;6.53;;;;;;;;;;5000270;28;20244;-69
2023/04/05 02:32:25;;;;;;;7.45;5.90;;;;;;;;;;5034314;28;20471;-69
2023/04/05 02:34:51;;;;;;;6.37;5.80;;;;;;;;;;5034323;28;20208;-69
2023/04/05 02:37:18;;;;;;;8.48;6.88;;;;;;;;;;5034443;28;20422;-69
2023/04/05 02:39:44;;;;;;;34.13;14.27;;;;;;;;;;5033240;28;20181;-69
2023/04/05 02:42:10;;;;;;;36.03;15.33;;;;;;;;;;5033257;28;20668;-69
2023/04/05 02:44:36;;;;;;;27.33;13.77;;;;;;;;;;5033592;28;20424;-69
2023/04/05 02:47:02;;;;;;;9.33;7.17;;;;;;;;;;5032929;28;20412;-68
2023/04/05 02:49:28;;;;;;;5.97;5.60;;;;;;;;;;5033637;28;20412;-68
2023/04/05 02:51:57;;;;;;;6.37;5.87;;;;;;;;;;5034040;28;20209;-68
2023/04/05 02:54:23;;;;;;;6.95;6.35;;;;;;;;;;5034120;28;20935;-69
2023/04/05 02:56:53;;;;;;;7.93;7.13;;;;;;;;;;5033442;28;20288;-69
2023/04/05 02:59:19;;;;;;;6.80;6.20;;;;;;;;;;5033827;28;20420;-70
2023/04/05 03:01:46;;;;;;;7.20;6.60;;;;;;;;;;5033586;28;20199;-69
2023/04/05 03:04:12;;;;;;;10.13;6.32;;;;;;;;;;5034139;28;20248;-69
2023/04/05 03:06:43;;;;;;;8.00;6.40;;;;;;;;;;5015235;28;20283;-69
2023/04/05 03:09:09;;;;;;;12.02;6.35;;;;;;;;;;5034097;28;20455;-69
2023/04/05 03:11:35;;;;;;;6.70;6.18;;;;;;;;;;5033459;28;20204;-69
2023/04/05 03:14:01;;;;;;;7.60;7.00;;;;;;;;;;5032664;28;20533;-69
2023/04/05 03:16:27;;;;;;;7.40;6.90;;;;;;;;;;5032886;28;20502;-69
2023/04/05 03:18:56;;;;;;;10.17;6.83;;;;;;;;;;5015406;28;20443;-69
2023/04/05 03:21:22;;;;;;;10.07;6.70;;;;;;;;;;5033407;28;20420;-68
2023/04/05 03:23:49;;;;;;;6.63;6.15;;;;;;;;;;5033199;28;20231;-68
2023/04/05 03:26:19;;;;;;;7.35;6.65;;;;;;;;;;5015691;28;20553;-68
2023/04/05 03:28:46;;;;;;;7.10;6.70;;;;;;;;;;5033418;28;20234;-69
2023/04/05 03:31:12;;;;;;;7.05;6.55;;;;;;;;;;5032832;28;20225;-69
2023/04/05 03:33:38;;;;;;;6.57;6.17;;;;;;;;;;5033712;28;20233;-69
2023/04/05 03:36:04;;;;;;;6.72;6.18;;;;;;;;;;5033312;28;20442;-68
2023/04/05 03:38:33;;;;;;;7.38;6.78;;;;;;;;;;5033437;28;20173;-68
2023/04/05 03:41:00;;;;;;;6.80;6.30;;;;;;;;;;5032739;28;20200;-70
2023/04/05 03:43:26;;;;;;;6.90;6.20;;;;;;;;;;5032885;28;20189;-68
2023/04/05 03:45:55;;;;;;;6.80;6.20;;;;;;;;;;5032911;28;20169;-68
2023/04/05 03:48:21;;;;;;;7.60;6.90;;;;;;;;;;5033081;28;20839;-68
2023/04/05 03:50:47;;;;;;;7.25;6.55;;;;;;;;;;5032439;28;20652;-69
2023/04/05 03:53:16;;;;;;;6.63;6.10;;;;;;;;;;5032852;28;20308;-69
2023/04/05 03:55:48;;;;;;;12.90;7.00;;;;;;;;;;5032811;28;20168;-69
2023/04/05 03:58:14;;;;;;;7.55;6.90;;;;;;;;;;5032858;28;20614;-69
2023/04/05 04:00:40;;;;;;;7.15;6.40;;;;;;;;;;5032320;28;20224;-69
2023/04/05 04:03:07;;;;;;;7.37;6.67;;;;;;;;;;5032846;28;20208;-68
2023/04/05 04:05:37;;;;;;;11.38;8.30;;;;;;;;;;5032372;28;20977;-69
2023/04/05 04:08:04;;;;;;;9.05;8.35;;;;;;;;;;5032626;28;20184;-68
2023/04/05 04:10:30;;;;;;;12.10;10.85;;;;;;;;;;5032609;28;20355;-69
2023/04/05 04:12:56;;;;;;;13.40;11.90;;;;;;;;;;5032240;28;20763;-69
2023/04/05 04:15:22;;;;;;;18.37;12.13;;;;;;;;;;5032322;28;20526;-69
2023/04/05 04:17:48;;;;;;;14.55;11.80;;;;;;;;;;5032192;28;20500;-68
2023/04/05 04:20:14;;;;;;;13.20;11.10;;;;;;;;;;5014492;28;20291;-68
2023/04/05 04:22:40;;;;;;;11.73;10.53;;;;;;;;;;5032626;28;20264;-68
2023/04/05 04:25:10;;;;;;;10.03;9.10;;;;;;;;;;5014207;28;20406;-68
2023/04/05 04:27:38;;;;;;;8.90;7.95;;;;;;;;;;5014520;28;20424;-69
2023/04/05 04:30:06;;;;;;;8.05;7.45;;;;;;;;;;5032198;28;20437;-68
2023/04/05 04:32:52;;;;;;;9.13;8.23;;;;;;;;;;5032108;28;20197;-69
2023/04/05 04:35:19;;;;;;;9.90;8.38;;;;;;;;;;5032242;28;20176;-68
2023/04/05 04:37:52;;;;;;;8.88;8.07;;;;;;;;;;5032347;28;20199;-69
2023/04/05 04:40:18;;;;;;;9.15;8.45;;;;;;;;;;5014626;28;20181;-68
2023/04/05 04:42:45;;;;;;;9.30;8.27;;;;;;;;;;5032124;28;20201;-69
2023/04/05 04:45:17;;;;;;;10.30;9.40;;;;;;;;;;5031984;28;20184;-69
2023/04/05 04:47:43;;;;;;;9.60;8.75;;;;;;;;;;5032354;28;20185;-69
2023/04/05 04:50:10;;;;;;;11.30;9.10;;;;;;;;;;5014549;28;20192;-68
2023/04/05 04:52:36;;;;;;;10.20;9.20;;;;;;;;;;5031637;28;20209;-69
2023/04/05 04:55:05;;;;;;;9.30;8.40;;;;;;;;;;5031963;28;20225;-69
2023/04/05 04:57:31;;;;;;;9.57;8.57;;;;;;;;;;5031800;28;20773;-69
2023/04/05 04:59:59;;;;;;;13.27;8.32;;;;;;;;;;5014082;28;20579;-69
2023/04/05 05:02:25;;;;;;;9.60;8.80;;;;;;;;;;5031912;28;20640;-69
2023/04/05 05:04:51;;;;;;;9.43;8.63;;;;;;;;;;5032120;28;20205;-68
2023/04/05 05:07:18;;;;;;;13.80;8.70;;;;;;;;;;5032198;28;20200;-68
2023/04/05 05:09:46;;;;;;;9.55;8.52;;;;;;;;;;5032265;28;20439;-69
2023/04/05 05:12:12;;;;;;;10.52;9.40;;;;;;;;;;5031933;28;20209;-68
2023/04/05 05:14:38;;;;;;;10.25;9.25;;;;;;;;;;5013859;28;20185;-69
2023/04/05 05:17:05;;;;;;;12.77;10.00;;;;;;;;;;5031822;28;20192;-69
2023/04/05 05:19:31;;;;;;;12.88;11.23;;;;;;;;;;5031378;28;20435;-68
2023/04/05 05:21:57;;;;;;;14.90;11.52;;;;;;;;;;5031862;28;20211;-68
2023/04/05 05:24:23;;;;;;;11.77;10.55;;;;;;;;;;5031869;28;20207;-68
2023/04/05 05:26:49;;;;;;;16.03;10.37;;;;;;;;;;5031812;28;20746;-68
2023/04/05 05:29:15;;;;;;;11.73;9.98;;;;;;;;;;5014220;28;20814;-68
2023/04/05 05:31:44;;;;;;;10.82;9.80;;;;;;;;;;5031308;28;20201;-69
2023/04/05 05:34:10;;;;;;;10.50;9.40;;;;;;;;;;5031877;28;20177;-68
2023/04/05 05:36:36;;;;;;;19.90;11.33;;;;;;;;;;5032191;28;20181;-68
2023/04/05 05:39:05;;;;;;;19.77;13.50;;;;;;;;;;5035554;28;20440;-67
2023/04/05 05:41:31;;;;;;;13.73;11.23;;;;;;;;;;5035245;28;20596;-68
2023/04/05 05:43:57;;;;;;;13.30;11.50;;;;;;;;;;5034729;28;20295;-68
2023/04/05 05:46:23;;;;;;;12.43;11.30;;;;;;;;;;5034794;28;20271;-68
2023/04/05 05:48:49;;;;;;;12.30;11.20;;;;;;;;;;5034888;28;20423;-68
2023/04/05 05:51:17;;;;;;;11.80;10.57;;;;;;;;;;5035066;28;20423;-69
2023/04/05 05:53:44;;;;;;;11.48;10.38;;;;;;;;;;5034948;28;20207;-68
2023/04/05 05:56:15;;;;;;;39.75;28.05;;;;;;;;;;5016781;28;20189;-68
2023/04/05 05:58:41;;;;;;;11.70;10.50;;;;;;;;;;5035063;28;20177;-68
2023/04/05 06:01:07;;;;;;;14.57;12.40;;;;;;;;;;5035306;28;20271;-68
2023/04/05 06:03:33;;;;;;;19.75;14.35;;;;;;;;;;5017282;28;20423;-69
2023/04/05 06:06:02;;;;;;;11.60;10.40;;;;;;;;;;5035212;28;20211;-68
2023/04/05 06:08:28;;;;;;;12.30;10.60;;;;;;;;;;5035179;28;20408;-68
2023/04/05 06:10:54;;;;;;;12.05;10.90;;;;;;;;;;5034931;28;20291;-69
2023/04/05 06:13:20;;;;;;;10.88;9.57;;;;;;;;;;5034807;28;20290;-68
2023/04/05 06:15:49;;;;;;;11.50;10.30;;;;;;;;;;5034960;28;20208;-67
2023/04/05 06:18:18;;;;;;;14.38;11.02;;;;;;;;;;5034847;28;20461;-67
2023/04/05 06:20:46;;;;;;;13.05;11.10;;;;;;;;;;5034815;28;20196;-67
2023/04/05 06:23:15;;;;;;;12.13;10.20;;;;;;;;;;5034668;28;20714;-68
2023/04/05 06:25:42;;;;;;;13.00;11.68;;;;;;;;;;5016825;28;20267;-68
2023/04/05 06:28:08;;;;;;;16.05;13.40;;;;;;;;;;5034418;28;20555;-67
2023/04/05 06:30:37;;;;;;;15.53;11.70;;;;;;;;;;5034572;28;20193;-68
2023/04/05 06:33:03;;;;;;;13.75;11.18;;;;;;;;;;5034219;28;20956;-68
2023/04/05 06:35:31;;;;;;;11.10;10.10;;;;;;;;;;5034588;28;20180;-68
2023/04/05 06:37:57;;;;;;;13.40;9.55;;;;;;;;;;5033811;28;20412;-68
2023/04/05 06:40:23;;;;;;;10.52;9.57;;;;;;;;;;5034513;28;20526;-68
2023/04/05 06:42:49;;;;;;;12.33;9.37;;;;;;;;;;5016244;28;20229;-68
2023/04/05 06:45:15;;;;;;;9.80;8.90;;;;;;;;;;5034722;28;20795;-67
2023/04/05 06:47:41;;;;;;;10.23;8.47;;;;;;;;;;5033705;28;20469;-68
2023/04/05 06:50:08;;;;;;;10.25;9.23;;;;;;;;;;5032715;28;20861;-68
2023/04/05 06:52:34;;;;;;;9.25;8.32;;;;;;;;;;5034237;28;20209;-68
2023/04/05 06:55:03;;;;;;;11.30;9.32;;;;;;;;;;5034177;28;20177;-68
2023/04/05 06:57:30;;;;;;;9.90;8.80;;;;;;;;;;5034656;28;20209;-68
2023/04/05 06:59:56;;;;;;;10.68;9.60;;;;;;;;;;5015632;28;20264;-68
2023/04/05 07:02:22;;;;;;;16.00;11.83;;;;;;;;;;5016192;28;20292;-68
2023/04/05 07:04:48;;;;;;;21.57;14.90;;;;;;;;;;5033662;28;20823;-68
2023/04/05 07:07:16;;;;;;;20.95;12.85;;;;;;;;;;5034001;28;20451;-68
2023/04/05 07:09:42;;;;;;;16.35;11.65;;;;;;;;;;5033687;28;20185;-68
2023/04/05 07:12:08;;;;;;;12.70;10.53;;;;;;;;;;5033734;28;20217;-69
2023/04/05 07:14:35;;;;;;;10.80;9.18;;;;;;;;;;5033733;28;20812;-68
2023/04/05 07:17:05;;;;;;;9.90;8.90;;;;;;;;;;5033407;28;20264;-68
2023/04/05 07:19:31;;;;;;;10.73;8.30;;;;;;;;;;5033462;28;20200;-68
2023/04/05 07:21:58;;;;;;;8.95;8.15;;;;;;;;;;5033398;28;20195;-67
2023/04/05 07:24:24;;;;;;;9.32;8.35;;;;;;;;;;5033484;28;20205;-69
2023/04/05 07:26:51;;;;;;;9.23;8.35;;;;;;;;;;5033493;28;20193;-69
2023/04/05 07:29:17;;;;;;;10.63;7.97;;;;;;;;;;5033236;28;20204;-68
2023/04/05 07:31:43;;;;;;;8.30;7.57;;;;;;;;;;5033211;28;20212;-68
2023/04/05 07:34:09;;;;;;;8.85;8.05;;;;;;;;;;5033314;28;20734;-69
2023/04/05 07:36:37;;;;;;;16.48;11.45;;;;;;;;;;5033257;28;20632;-69
2023/04/05 07:39:04;;;;;;;10.07;8.93;;;;;;;;;;5033254;28;20232;-68
2023/04/05 07:41:34;;;;;;;8.98;8.18;;;;;;;;;;5033239;28;20172;-68
2023/04/05 07:44:00;;;;;;;10.73;8.77;;;;;;;;;;5033163;28;20166;-68
2023/04/05 07:46:26;;;;;;;10.25;9.25;;;;;;;;;;5032709;28;20201;-67
2023/04/05 07:48:55;;;;;;;9.55;8.43;;;;;;;;;;5013656;28;20177;-68
2023/04/05 07:51:21;;;;;;;7.60;7.00;;;;;;;;;;5030917;28;20563;-69
2023/04/05 07:53:47;;;;;;;10.68;8.15;;;;;;;;;;5031457;28;20192;-69
2023/04/05 07:56:13;;;;;;;10.23;9.32;;;;;;;;;;5031696;28;20575;-69
2023/04/05 07:58:42;;;;;;;9.70;8.80;;;;;;;;;;5032434;28;20161;-69
2023/04/05 08:01:09;;;;;;;9.50;8.60;;;;;;;;;;5031698;28;20589;-69
2023/04/05 08:03:35;;;;;;;12.20;9.25;;;;;;;;;;5032555;28;20659;-68
2023/04/05 08:06:11;;;;;;;11.25;9.25;;;;;;;;;;5032974;28;20176;-68
2023/04/05 08:08:37;;;;;;;10.70;9.20;;;;;;;;;;5032906;28;20238;-67
2023/04/05 08:11:03;;;;;;;9.80;9.00;;;;;;;;;;5015199;28;20185;-67
2023/04/05 08:13:29;;;;;;;11.13;9.50;;;;;;;;;;5032906;28;20441;-67
2023/04/05 08:15:56;;;;;;;10.37;9.33;;;;;;;;;;5033019;28;20421;-67
2023/04/05 08:18:22;;;;;;;10.30;9.50;;;;;;;;;;5033150;28;20427;-67
2023/04/05 08:20:51;;;;;;;8.40;7.80;;;;;;;;;;5033039;28;20462;-67
2023/04/05 08:23:20;;;;;;;15.93;12.07;;;;;;;;;;5032873;28;20882;-67
2023/04/05 08:25:46;;;;;;;9.57;7.60;;;;;;;;;;5015794;28;20507;-67
2023/04/05 08:28:12;;;;;;;8.33;7.53;;;;;;;;;;5032959;28;20529;-67
2023/04/05 08:30:38;;;;;;;8.50;7.37;;;;;;;;;;5032814;28;20390;-67
2023/04/05 08:33:04;;;;;;;8.70;7.90;;;;;;;;;;5032659;28;20566;-67
2023/04/05 08:35:31;;;;;;;10.87;7.57;;;;;;;;;;5032623;28;20499;-67
2023/04/05 08:37:57;;;;;;;14.47;12.23;;;;;;;;;;5032647;28;20439;-68
2023/04/05 08:40:26;;;;;;;7.77;7.07;;;;;;;;;;5032265;28;20409;-69
2023/04/05 08:42:57;;;;;;;7.63;7.00;;;;;;;;;;5032703;28;20413;-68
2023/04/05 08:45:26;;;;;;;7.70;7.20;;;;;;;;;;5032476;28;20391;-68
2023/04/05 08:47:53;;;;;;;7.27;6.63;;;;;;;;;;5032405;28;20414;-67
2023/04/05 08:50:21;;;;;;;7.00;6.50;;;;;;;;;;5032248;28;20395;-67
2023/04/05 08:52:48;;;;;;;7.57;6.87;;;;;;;;;;5032692;28;20482;-69
2023/04/05 08:55:15;;;;;;;6.23;5.60;;;;;;;;;;5032228;28;20473;-68
2023/04/05 08:57:42;;;;;;;6.67;6.07;;;;;;;;;;5032686;28;20410;-68
2023/04/05 09:00:11;;;;;;;6.67;5.70;;;;;;;;;;5032227;28;20423;-68
2023/04/05 09:02:38;;;;;;;5.70;5.20;;;;;;;;;;5032466;28;20455;-68
2023/04/05 09:05:07;;;;;;;6.70;5.93;;;;;;;;;;5032287;28;20416;-67
2023/04/05 09:07:36;;;;;;;6.37;5.97;;;;;;;;;;5031664;28;20435;-67
2023/04/05 09:10:05;;;;;;;5.93;5.43;;;;;;;;;;5032201;28;20418;-67
2023/04/05 09:12:31;;;;;;;5.50;5.10;;;;;;;;;;5035466;28;20471;-68
2023/04/05 09:15:02;;;;;;;4.97;4.77;;;;;;;;;;5036417;28;20432;-67
2023/04/05 09:17:31;;;;;;;5.17;4.77;;;;;;;;;;5036463;28;20447;-67
2023/04/05 09:19:57;;;;;;;6.47;4.30;;;;;;;;;;5036258;28;20465;-67
2023/04/05 09:22:23;;;;;;;5.17;4.97;;;;;;;;;;5035985;28;20406;-67
2023/04/05 09:24:48;;;;;;;5.50;5.10;;;;;;;;;;5036141;28;20408;-67
2023/04/05 09:27:15;;;;;;;5.43;5.03;;;;;;;;;;5035978;28;20409;-67
2023/04/05 09:29:46;;;;;;;6.87;5.60;;;;;;;;;;5018364;28;20431;-67
2023/04/05 09:32:13;;;;;;;5.20;4.90;;;;;;;;;;5018491;28;20467;-68
2023/04/05 09:34:39;;;;;;;8.17;6.10;;;;;;;;;;5036079;28;20428;-67
2023/04/05 09:37:12;;;;;;;6.90;5.80;;;;;;;;;;5035838;28;20494;-68
2023/04/05 09:39:38;;;;;;;7.07;5.60;;;;;;;;;;5035737;28;20404;-67
2023/04/05 09:42:04;;;;;;;7.20;6.40;;;;;;;;;;5035630;28;20454;-69
2023/04/05 09:44:49;;;;;;;7.40;6.37;;;;;;;;;;5035673;28;20386;-67
2023/04/05 09:47:20;;;;;;;6.53;5.93;;;;;;;;;;5035335;28;20412;-67
2023/04/05 09:49:49;;;;;;;7.47;6.10;;;;;;;;;;5035764;28;20433;-67
2023/04/05 09:52:25;;;;;;;6.47;5.87;;;;;;;;;;5035395;28;20470;-67
2023/04/05 09:54:55;;;;;;;7.03;6.37;;;;;;;;;;5035694;28;20415;-67
2023/04/05 09:57:21;;;;;;;6.33;5.80;;;;;;;;;;5035586;28;20461;-68
2023/04/05 09:59:48;;;;;;;6.20;5.80;;;;;;;;;;5035422;28;20440;-68
2023/04/05 10:02:15;;;;;;;5.53;5.23;;;;;;;;;;5035177;28;20466;-67
2023/04/05 10:04:41;;;;;;;5.67;5.17;;;;;;;;;;5035596;28;20410;-67
2023/04/05 10:07:16;;;;;;;6.80;5.90;;;;;;;;;;5035288;28;20474;-68
2023/04/05 10:09:43;;;;;;;7.63;6.90;;;;;;;;;;5035487;28;20403;-68
2023/04/05 10:12:13;;;;;;;8.73;7.87;;;;;;;;;;5035302;28;20456;-68
2023/04/05 10:14:39;;;;;;;7.70;5.40;;;;;;;;;;5017545;28;20420;-68
2023/04/05 10:17:38;;;;;;;5.87;5.27;;;;;;;;;;5018123;28;20424;-68
2023/04/05 10:20:07;;;;;;;5.70;5.30;;;;;;;;;;4981253;28;20423;-68
2023/04/05 10:22:36;;;;;;;5.87;5.37;;;;;;;;;;5034535;28;20454;-68
2023/04/05 10:25:07;;;;;;;5.87;5.40;;;;;;;;;;5035347;28;20894;-68
2023/04/05 10:27:46;;;;;;;6.87;6.00;;;;;;;;;;5035054;28;20482;-67
2023/04/05 10:30:12;;;;;;;6.40;5.40;;;;;;;;;;5017567;28;20779;-68
2023/04/05 10:32:53;;;;;;;12.97;6.10;;;;;;;;;;5035067;28;20842;-68
2023/04/05 10:35:39;;;;;;;7.20;5.70;;;;;;;;;;5035120;28;20427;-68
2023/04/05 10:38:11;;;;;;;8.30;5.83;;;;;;;;;;5016802;28;20446;-68
2023/04/05 10:40:37;;;;;;;13.37;10.77;;;;;;;;;;5034589;28;20412;-67
2023/04/05 10:43:06;;;;;;;6.00;5.60;;;;;;;;;;5034806;28;20450;-68
2023/04/05 10:45:36;;;;;;;6.43;5.80;;;;;;;;;;5034668;28;20472;-68
2023/04/05 10:48:27;;;;;;;5.90;5.40;;;;;;;;;;5034785;28;20436;-68
2023/04/05 10:50:53;;;;;;;5.83;5.50;;;;;;;;;;5025326;28;21032;-64
2023/04/05 10:53:22;;;;;;;6.00;5.50;;;;;;;;;;5034244;28;20479;-64
2023/04/05 10:55:49;;;;;;;11.13;7.70;;;;;;;;;;5034136;28;20473;-65
2023/04/05 10:58:16;;;;;;;6.60;6.20;;;;;;;;;;5034426;28;20489;-65
2023/04/05 11:00:42;;;;;;;9.70;6.37;;;;;;;;;;5034320;28;20907;-65
2023/04/05 11:03:12;;;;;;;5.70;5.40;;;;;;;;;;5034004;28;20442;-65
2023/04/05 11:05:39;;;;;;;6.50;5.63;;;;;;;;;;5034002;28;20408;-65
2023/04/05 11:08:11;;;;;;;6.27;5.73;;;;;;;;;;5034108;28;20435;-65
2023/04/05 11:10:38;;;;;;;5.60;5.10;;;;;;;;;;5033796;28;20471;-64
2023/04/05 11:13:05;;;;;;;6.23;5.90;;;;;;;;;;5033885;28;20479;-64
2023/04/05 11:15:32;;;;;;;5.77;5.37;;;;;;;;;;5033876;28;20430;-65
2023/04/05 11:18:03;;;;;;;8.03;6.07;;;;;;;;;;5033805;28;20550;-64
2023/04/05 11:20:50;;;;;;;6.40;5.97;;;;;;;;;;5015898;28;20416;-63
2023/04/05 11:23:17;;;;;;;5.90;5.50;;;;;;;;;;5033956;28;20439;-64
2023/04/05 11:26:06;;;;;;;6.93;6.10;;;;;;;;;;5033777;28;20501;-64
2023/04/05 11:28:40;;;;;;;6.60;6.10;;;;;;;;;;5033808;28;20444;-64
2023/04/05 11:31:21;;;;;;;6.00;5.70;;;;;;;;;;5033793;28;20465;-64
2023/04/05 11:33:47;;;;;;;6.50;5.90;;;;;;;;;;5033796;28;20432;-64
2023/04/05 11:36:15;;;;;;;5.83;5.33;;;;;;;;;;5015519;28;20400;-64
2023/04/05 11:38:43;;;;;;;6.20;5.70;;;;;;;;;;5033776;28;20538;-64
2023/04/05 11:41:20;;;;;;;6.27;5.03;;;;;;;;;;5033608;28;20392;-64
2023/04/05 11:43:51;;;;;;;5.47;5.20;;;;;;;;;;5033652;28;20515;-64
2023/04/05 11:46:20;;;;;;;5.67;5.13;;;;;;;;;;5033655;28;20385;-64
2023/04/05 11:48:49;;;;;;;5.80;5.50;;;;;;;;;;5033334;28;20420;-64
2023/04/05 11:51:22;;;;;;;5.80;5.20;;;;;;;;;;5033622;28;21035;-64
2023/04/05 11:53:50;;;;;;;6.67;6.00;;;;;;;;;;5033208;28;20961;-64
2023/04/05 11:56:18;;;;;;;5.17;4.80;;;;;;;;;;5032874;28;20929;-64
2023/04/05 11:58:45;;;;;;;5.50;5.20;;;;;;;;;;5033200;28;20436;-63
2023/04/05 12:01:11;;;;;;;5.70;5.30;;;;;;;;;;5032946;28;20526;-63
2023/04/05 12:03:39;;;;;;;5.83;5.43;;;;;;;;;;5033537;28;20506;-65
2023/04/05 12:06:07;;;;;;;5.87;5.40;;;;;;;;;;5033232;28;20407;-64
2023/04/05 12:08:40;;;;;;;5.53;5.00;;;;;;;;;;5015251;28;20921;-65
2023/04/05 12:11:11;;;;;;;5.37;5.17;;;;;;;;;;5032860;28;20412;-65
2023/04/05 12:13:37;;;;;;;8.37;5.10;;;;;;;;;;5032864;28;20471;-65
2023/04/05 12:16:04;;;;;;;4.70;4.50;;;;;;;;;;5032875;28;20503;-65
2023/04/05 12:18:31;;;;;;;4.77;4.23;;;;;;;;;;5032014;28;20483;-64
2023/04/05 12:20:57;;;;;;;4.77;4.20;;;;;;;;;;5032505;28;20440;-64
2023/04/05 12:23:23;;;;;;;4.93;4.67;;;;;;;;;;5032538;28;20420;-64
2023/04/05 12:25:52;;;;;;;5.30;4.93;;;;;;;;;;5032726;28;20417;-65
2023/04/05 12:28:18;;;;;;;5.03;4.83;;;;;;;;;;5032069;28;20412;-65
2023/04/05 12:31:03;;;;;;;7.53;5.77;;;;;;;;;;5032759;28;20422;-64
2023/04/05 12:33:31;;;;;;;5.37;5.07;;;;;;;;;;5032040;28;21080;-65
2023/04/05 12:35:58;;;;;;;6.90;5.10;;;;;;;;;;5032441;28;20936;-65
2023/04/05 12:38:31;;;;;;;5.93;5.33;;;;;;;;;;5014436;28;20437;-64
2023/04/05 12:41:00;;;;;;;5.70;5.27;;;;;;;;;;5032161;28;20449;-64
2023/04/05 12:43:26;;;;;;;5.47;5.07;;;;;;;;;;5032260;28;20834;-64
2023/04/05 12:45:57;;;;;;;11.30;7.47;;;;;;;;;;5032099;28;20427;-64
2023/04/05 12:48:25;;;;;;;6.77;5.87;;;;;;;;;;5032495;28;20427;-63
2023/04/05 12:50:53;;;;;;;10.67;9.77;;;;;;;;;;5032742;28;20481;-64
2023/04/05 12:53:20;;;;;;;8.30;5.10;;;;;;;;;;5033073;28;20548;-64
2023/04/05 12:55:50;;;;;;;5.70;5.30;;;;;;;;;;5032461;28;20414;-64
2023/04/05 12:58:16;;;;;;;5.90;5.70;;;;;;;;;;5032407;28;20505;-64
2023/04/05 13:00:42;;;;;;;5.90;5.60;;;;;;;;;;5032583;28;20523;-64
2023/04/05 13:03:15;;;;;;;5.50;5.10;;;;;;;;;;5031332;28;20411;-64
2023/04/05 13:05:41;;;;;;;5.80;5.30;;;;;;;;;;5031968;28;20450;-64
2023/04/05 13:08:07;;;;;;;6.03;5.53;;;;;;;;;;5032419;28;20886;-64
2023/04/05 13:10:38;;;;;;;6.20;5.80;;;;;;;;;;5032646;28;20450;-65
2023/04/05 13:13:04;;;;;;;6.50;5.90;;;;;;;;;;5032074;28;20467;-64
2023/04/05 13:15:32;;;;;;;8.03;5.70;;;;;;;;;;5032112;28;20439;-65
2023/04/05 13:17:58;;;;;;;4.97;4.70;;;;;;;;;;5032100;28;20790;-65
2023/04/05 13:20:24;;;;;;;5.30;5.00;;;;;;;;;;5014293;28;20454;-64
2023/04/05 13:22:53;;;;;;;5.30;5.00;;;;;;;;;;5014569;28;20891;-64
2023/04/05 13:25:22;;;;;;;5.93;5.47;;;;;;;;;;5032066;28;20918;-64
2023/04/05 13:27:48;;;;;;;5.60;5.10;;;;;;;;;;5032211;28;20416;-64
2023/04/05 13:30:14;;;;;;;6.03;5.17;;;;;;;;;;5032144;28;20526;-65
2023/04/05 13:32:40;;;;;;;6.33;5.87;;;;;;;;;;5032093;28;20469;-65
2023/04/05 13:35:06;;;;;;;6.33;5.73;;;;;;;;;;5031961;28;20439;-64
2023/04/05 13:37:35;;;;;;;5.77;5.37;;;;;;;;;;5014415;28;20425;-65
2023/04/05 13:40:01;;;;;;;10.60;5.90;;;;;;;;;;5032225;28;20806;-63
2023/04/05 13:42:27;;;;;;;6.70;6.00;;;;;;;;;;5032109;28;20571;-64
2023/04/05 13:44:55;;;;;;;6.07;5.60;;;;;;;;;;5032368;28;20538;-64
2023/04/05 13:47:21;;;;;;;5.73;5.23;;;;;;;;;;5031976;28;20938;-64
2023/04/05 13:49:47;;;;;;;6.90;5.20;;;;;;;;;;5031901;28;20467;-64
2023/04/05 13:52:16;;;;;;;5.90;5.60;;;;;;;;;;5031896;28;20825;-64
2023/04/05 13:54:42;;;;;;;5.40;5.10;;;;;;;;;;5032325;28;20855;-64
2023/04/05 13:57:13;;;;;;;6.23;5.50;;;;;;;;;;5032354;28;20416;-64
2023/04/05 13:59:38;;;;;;;5.60;5.13;;;;;;;;;;5017614;28;20415;-64
2023/04/05 14:02:05;;;;;;;6.20;5.70;;;;;;;;;;5035518;28;20455;-64
2023/04/05 14:04:31;;;;;;;6.53;5.90;;;;;;;;;;5035307;28;20439;-64
2023/04/05 14:06:57;;;;;;;6.13;5.60;;;;;;;;;;5017839;28;20414;-64
2023/04/05 14:09:23;;;;;;;5.87;5.43;;;;;;;;;;5035366;28;20795;-64
2023/04/05 14:11:51;;;;;;;5.40;5.10;;;;;;;;;;5035263;28;20476;-65
2023/04/05 14:14:17;;;;;;;5.73;5.37;;;;;;;;;;5035204;28;20407;-65
2023/04/05 14:16:43;;;;;;;8.13;7.33;;;;;;;;;;5035292;28;20399;-65
2023/04/05 14:19:09;;;;;;;5.00;4.80;;;;;;;;;;5035326;28;20416;-65
2023/04/05 14:21:36;;;;;;;5.67;5.30;;;;;;;;;;5035175;28;20415;-65
2023/04/05 14:24:02;;;;;;;5.57;5.37;;;;;;;;;;5034891;28;20423;-65
2023/04/05 14:26:29;;;;;;;5.07;4.83;;;;;;;;;;5034999;28;20408;-65
2023/04/05 14:28:55;;;;;;;5.17;4.87;;;;;;;;;;5035015;28;20450;-64
2023/04/05 14:31:23;;;;;;;5.80;5.40;;;;;;;;;;5035096;28;20806;-64
2023/04/05 14:33:49;;;;;;;6.30;5.27;;;;;;;;;;5034749;28;20471;-64
2023/04/05 14:36:15;;;;;;;6.10;5.60;;;;;;;;;;5016972;28;20447;-64
2023/04/05 14:38:41;;;;;;;5.50;4.67;;;;;;;;;;5034537;28;20412;-64
2023/04/05 14:41:09;;;;;;;5.80;5.27;;;;;;;;;;5034911;28;20464;-64